sensor_id;sensor_type;location;lat;lon;timestamp;temperature;humidity
10891;DHT22;5498;50.928;11.598;2023-03-12T00:01:15;0.30;84.30
10891;DHT22;5498;50.928;11.598;2023-03-12T00:04:18;0.20;84.20
10891;DHT22;5498;50.928;11.598;2023-03-12T00:07:19;0.70;84.50
10891;DHT22;5498;50.928;11.598;2023-03-12T00:10:21;0.60;84.50
10891;DHT22;5498;50.928;11.598;2023-03-12T00:13:23;0.10;85.00
10891;DHT22;5498;50.928;11.598;2023-03-12T00:16:26;0.10;84.60
10891;DHT22;5498;50.928;11.598;2023-03-12T00:19:29;0.30;84.40
10891;DHT22;5498;50.928;11.598;2023-03-12T00:22:30;0.10;84.50
10891;DHT22;5498;50.928;11.598;2023-03-12T00:25:32;0.10;84.60
10891;DHT22;5498;50.928;11.598;2023-03-12T00:28:35;0.10;85.30
10891;DHT22;5498;50.928;11.598;2023-03-12T00:31:38;0.10;84.70
10891;DHT22;5498;50.928;11.598;2023-03-12T00:34:40;0.00;84.20
10891;DHT22;5498;50.928;11.598;2023-03-12T00:37:42;0.00;84.60
10891;DHT22;5498;50.928;11.598;2023-03-12T00:40:44;-0.10;84.50
10891;DHT22;5498;50.928;11.598;2023-03-12T00:43:46;-0.10;84.70
10891;DHT22;5498;50.928;11.598;2023-03-12T00:46:49;-0.20;85.10
10891;DHT22;5498;50.928;11.598;2023-03-12T00:49:51;-0.20;85.10
10891;DHT22;5498;50.928;11.598;2023-03-12T00:52:53;0.20;85.30
10891;DHT22;5498;50.928;11.598;2023-03-12T00:55:54;-0.30;85.10
10891;DHT22;5498;50.928;11.598;2023-03-12T00:58:56;-0.30;85.30
10891;DHT22;5498;50.928;11.598;2023-03-12T01:01:59;-0.30;85.50
10891;DHT22;5498;50.928;11.598;2023-03-12T01:05:01;-0.30;85.40
10891;DHT22;5498;50.928;11.598;2023-03-12T01:08:04;-0.40;85.50
10891;DHT22;5498;50.928;11.598;2023-03-12T01:11:06;-0.40;85.90
10891;DHT22;5498;50.928;11.598;2023-03-12T01:14:08;-0.40;85.80
10891;DHT22;5498;50.928;11.598;2023-03-12T01:17:11;-0.40;85.60
10891;DHT22;5498;50.928;11.598;2023-03-12T01:20:13;-0.40;85.80
10891;DHT22;5498;50.928;11.598;2023-03-12T01:23:15;-0.50;85.50
10891;DHT22;5498;50.928;11.598;2023-03-12T01:26:17;-0.50;85.50
10891;DHT22;5498;50.928;11.598;2023-03-12T01:29:19;-0.30;86.00
10891;DHT22;5498;50.928;11.598;2023-03-12T01:32:22;-0.60;85.90
10891;DHT22;5498;50.928;11.598;2023-03-12T01:35:24;-0.70;85.70
10891;DHT22;5498;50.928;11.598;2023-03-12T01:38:26;-0.70;86.20
10891;DHT22;5498;50.928;11.598;2023-03-12T01:41:30;-0.70;86.10
10891;DHT22;5498;50.928;11.598;2023-03-12T01:44:48;-0.80;86.40
10891;DHT22;5498;50.928;11.598;2023-03-12T01:47:53;-0.80;86.50
10891;DHT22;5498;50.928;11.598;2023-03-12T01:50:54;-0.80;86.20
10891;DHT22;5498;50.928;11.598;2023-03-12T01:53:59;-0.80;86.30
10891;DHT22;5498;50.928;11.598;2023-03-12T01:57:08;-0.80;86.80
10891;DHT22;5498;50.928;11.598;2023-03-12T02:00:13;-0.40;87.00
10891;DHT22;5498;50.928;11.598;2023-03-12T02:03:19;-0.80;87.20
10891;DHT22;5498;50.928;11.598;2023-03-12T02:06:25;-0.50;86.70
10891;DHT22;5498;50.928;11.598;2023-03-12T02:09:32;-0.90;87.10
10891;DHT22;5498;50.928;11.598;2023-03-12T02:12:36;-0.90;87.30
10891;DHT22;5498;50.928;11.598;2023-03-12T02:15:38;-0.90;86.50
10891;DHT22;5498;50.928;11.598;2023-03-12T02:18:42;-0.90;87.00
10891;DHT22;5498;50.928;11.598;2023-03-12T02:21:45;-0.90;86.80
10891;DHT22;5498;50.928;11.598;2023-03-12T02:24:51;-0.90;86.80
10891;DHT22;5498;50.928;11.598;2023-03-12T02:27:56;-1.00;87.00
10891;DHT22;5498;50.928;11.598;2023-03-12T02:31:02;-1.00;87.10
10891;DHT22;5498;50.928;11.598;2023-03-12T02:34:06;-1.00;87.90
10891;DHT22;5498;50.928;11.598;2023-03-12T02:37:08;-0.50;87.40
10891;DHT22;5498;50.928;11.598;2023-03-12T02:40:16;-1.00;87.30
10891;DHT22;5498;50.928;11.598;2023-03-12T02:43:21;-1.00;87.30
10891;DHT22;5498;50.928;11.598;2023-03-12T02:46:24;-1.00;86.80
10891;DHT22;5498;50.928;11.598;2023-03-12T02:49:28;-1.10;86.70
10891;DHT22;5498;50.928;11.598;2023-03-12T02:52:31;-1.10;87.20
10891;DHT22;5498;50.928;11.598;2023-03-12T02:55:35;-1.10;87.40
10891;DHT22;5498;50.928;11.598;2023-03-12T02:58:38;-1.10;87.50
10891;DHT22;5498;50.928;11.598;2023-03-12T03:01:42;-1.10;87.30
10891;DHT22;5498;50.928;11.598;2023-03-12T03:04:44;-1.10;87.00
10891;DHT22;5498;50.928;11.598;2023-03-12T03:07:46;-1.20;87.20
10891;DHT22;5498;50.928;11.598;2023-03-12T03:10:49;-1.20;87.30
10891;DHT22;5498;50.928;11.598;2023-03-12T03:13:54;-1.20;87.80
10891;DHT22;5498;50.928;11.598;2023-03-12T03:16:56;-1.20;87.70
10891;DHT22;5498;50.928;11.598;2023-03-12T03:19:57;-1.20;87.40
10891;DHT22;5498;50.928;11.598;2023-03-12T03:22:59;-1.20;87.30
10891;DHT22;5498;50.928;11.598;2023-03-12T03:26:02;-1.20;87.20
10891;DHT22;5498;50.928;11.598;2023-03-12T03:29:05;-1.30;87.70
10891;DHT22;5498;50.928;11.598;2023-03-12T03:32:07;-1.40;87.20
10891;DHT22;5498;50.928;11.598;2023-03-12T03:35:09;-1.40;87.50
10891;DHT22;5498;50.928;11.598;2023-03-12T03:38:11;-1.40;87.60
10891;DHT22;5498;50.928;11.598;2023-03-12T03:41:13;-1.50;87.80
10891;DHT22;5498;50.928;11.598;2023-03-12T03:44:16;-1.00;88.50
10891;DHT22;5498;50.928;11.598;2023-03-12T03:47:18;-1.50;88.40
10891;DHT22;5498;50.928;11.598;2023-03-12T03:50:20;-1.50;88.20
10891;DHT22;5498;50.928;11.598;2023-03-12T03:53:22;-1.10;88.50
10891;DHT22;5498;50.928;11.598;2023-03-12T03:56:24;-1.60;88.20
10891;DHT22;5498;50.928;11.598;2023-03-12T03:59:27;-1.60;88.40
10891;DHT22;5498;50.928;11.598;2023-03-12T04:02:29;-1.60;88.50
10891;DHT22;5498;50.928;11.598;2023-03-12T04:05:31;-1.50;88.60
10891;DHT22;5498;50.928;11.598;2023-03-12T04:08:34;-1.20;88.80
10891;DHT22;5498;50.928;11.598;2023-03-12T04:11:37;-1.50;88.70
10891;DHT22;5498;50.928;11.598;2023-03-12T04:14:41;-1.50;88.40
10891;DHT22;5498;50.928;11.598;2023-03-12T04:17:43;-1.50;88.40
10891;DHT22;5498;50.928;11.598;2023-03-12T04:20:45;-1.50;88.10
10891;DHT22;5498;50.928;11.598;2023-03-12T04:23:47;-1.10;88.50
10891;DHT22;5498;50.928;11.598;2023-03-12T04:26:49;-1.50;88.80
10891;DHT22;5498;50.928;11.598;2023-03-12T04:29:52;-1.50;88.40
10891;DHT22;5498;50.928;11.598;2023-03-12T04:32:54;-1.10;88.60
10891;DHT22;5498;50.928;11.598;2023-03-12T04:35:56;-1.50;88.50
10891;DHT22;5498;50.928;11.598;2023-03-12T04:38:58;-1.60;88.60
10891;DHT22;5498;50.928;11.598;2023-03-12T04:42:00;-1.70;88.70
10891;DHT22;5498;50.928;11.598;2023-03-12T04:45:04;-1.60;89.30
10891;DHT22;5498;50.928;11.598;2023-03-12T04:48:06;-1.60;89.70
10891;DHT22;5498;50.928;11.598;2023-03-12T04:51:08;-1.60;89.30
10891;DHT22;5498;50.928;11.598;2023-03-12T04:54:10;-1.50;89.40
10891;DHT22;5498;50.928;11.598;2023-03-12T04:57:12;-1.50;89.50
10891;DHT22;5498;50.928;11.598;2023-03-12T05:00:17;-1.40;89.40
10891;DHT22;5498;50.928;11.598;2023-03-12T05:03:19;-1.40;89.60
10891;DHT22;5498;50.928;11.598;2023-03-12T05:06:22;-1.40;89.20
10891;DHT22;5498;50.928;11.598;2023-03-12T05:09:24;-1.30;89.50
10891;DHT22;5498;50.928;11.598;2023-03-12T05:12:26;-1.30;89.10
10891;DHT22;5498;50.928;11.598;2023-03-12T05:15:29;-1.00;89.60
10891;DHT22;5498;50.928;11.598;2023-03-12T05:18:31;-1.20;89.20
10891;DHT22;5498;50.928;11.598;2023-03-12T05:21:33;-1.20;88.90
10891;DHT22;5498;50.928;11.598;2023-03-12T05:24:35;-1.10;89.00
10891;DHT22;5498;50.928;11.598;2023-03-12T05:27:37;-1.10;88.80
10891;DHT22;5498;50.928;11.598;2023-03-12T05:30:40;-1.10;88.80
10891;DHT22;5498;50.928;11.598;2023-03-12T05:33:43;-1.10;88.90
10891;DHT22;5498;50.928;11.598;2023-03-12T05:36:44;-1.10;88.70
10891;DHT22;5498;50.928;11.598;2023-03-12T05:39:47;-1.10;88.80
10891;DHT22;5498;50.928;11.598;2023-03-12T05:42:48;-1.10;88.30
10891;DHT22;5498;50.928;11.598;2023-03-12T05:45:52;-1.10;88.60
10891;DHT22;5498;50.928;11.598;2023-03-12T05:48:54;-1.10;88.80
10891;DHT22;5498;50.928;11.598;2023-03-12T05:51:57;-1.10;88.70
10891;DHT22;5498;50.928;11.598;2023-03-12T05:54:59;-1.00;89.00
10891;DHT22;5498;50.928;11.598;2023-03-12T05:58:01;-1.00;88.70
10891;DHT22;5498;50.928;11.598;2023-03-12T06:01:10;-1.00;88.50
10891;DHT22;5498;50.928;11.598;2023-03-12T06:04:13;-1.00;89.00
10891;DHT22;5498;50.928;11.598;2023-03-12T06:07:14;-1.00;88.60
10891;DHT22;5498;50.928;11.598;2023-03-12T06:10:16;-0.90;88.40
10891;DHT22;5498;50.928;11.598;2023-03-12T06:13:18;-0.90;88.50
10891;DHT22;5498;50.928;11.598;2023-03-12T06:16:24;-0.90;88.50
10891;DHT22;5498;50.928;11.598;2023-03-12T06:19:27;-0.80;88.70
10891;DHT22;5498;50.928;11.598;2023-03-12T06:22:28;-0.80;88.20
10891;DHT22;5498;50.928;11.598;2023-03-12T06:25:30;-0.70;88.30
10891;DHT22;5498;50.928;11.598;2023-03-12T06:28:33;-0.50;88.20
10891;DHT22;5498;50.928;11.598;2023-03-12T06:31:37;-0.60;88.10
10891;DHT22;5498;50.928;11.598;2023-03-12T06:34:41;-0.50;87.90
10891;DHT22;5498;50.928;11.598;2023-03-12T06:37:43;-0.60;87.80
10891;DHT22;5498;50.928;11.598;2023-03-12T06:40:53;-0.30;88.00
10891;DHT22;5498;50.928;11.598;2023-03-12T06:43:55;-0.50;88.30
10891;DHT22;5498;50.928;11.598;2023-03-12T06:46:59;-0.30;88.10
10891;DHT22;5498;50.928;11.598;2023-03-12T06:50:01;-0.40;87.70
10891;DHT22;5498;50.928;11.598;2023-03-12T06:53:03;-0.40;87.90
10891;DHT22;5498;50.928;11.598;2023-03-12T06:56:06;-0.30;87.70
10891;DHT22;5498;50.928;11.598;2023-03-12T06:59:08;-0.20;88.00
10891;DHT22;5498;50.928;11.598;2023-03-12T07:02:11;-0.10;87.60
10891;DHT22;5498;50.928;11.598;2023-03-12T07:05:13;0.50;87.70
10891;DHT22;5498;50.928;11.598;2023-03-12T07:08:16;0.30;87.00
10891;DHT22;5498;50.928;11.598;2023-03-12T07:11:18;0.30;87.00
10891;DHT22;5498;50.928;11.598;2023-03-12T07:14:20;0.90;87.20
10891;DHT22;5498;50.928;11.598;2023-03-12T07:17:23;1.10;86.80
10891;DHT22;5498;50.928;11.598;2023-03-12T07:20:25;1.00;86.20
10891;DHT22;5498;50.928;11.598;2023-03-12T07:23:27;1.20;85.30
10891;DHT22;5498;50.928;11.598;2023-03-12T07:26:29;1.40;84.90
10891;DHT22;5498;50.928;11.598;2023-03-12T07:29:31;1.70;85.30
10891;DHT22;5498;50.928;11.598;2023-03-12T07:32:34;2.10;84.30
10891;DHT22;5498;50.928;11.598;2023-03-12T07:35:37;1.90;83.00
10891;DHT22;5498;50.928;11.598;2023-03-12T07:38:39;2.00;82.90
10891;DHT22;5498;50.928;11.598;2023-03-12T07:41:41;2.20;82.20
10891;DHT22;5498;50.928;11.598;2023-03-12T07:44:43;2.50;82.20
10891;DHT22;5498;50.928;11.598;2023-03-12T07:47:46;2.30;82.30
10891;DHT22;5498;50.928;11.598;2023-03-12T07:50:48;2.50;82.70
10891;DHT22;5498;50.928;11.598;2023-03-12T07:53:50;2.80;82.40
10891;DHT22;5498;50.928;11.598;2023-03-12T07:56:52;3.10;81.90
10891;DHT22;5498;50.928;11.598;2023-03-12T07:59:54;3.40;81.40
10891;DHT22;5498;50.928;11.598;2023-03-12T08:02:57;3.60;80.30
10891;DHT22;5498;50.928;11.598;2023-03-12T08:06:01;3.80;79.60
10891;DHT22;5498;50.928;11.598;2023-03-12T08:09:04;4.00;79.20
10891;DHT22;5498;50.928;11.598;2023-03-12T08:12:06;4.10;77.70
10891;DHT22;5498;50.928;11.598;2023-03-12T08:15:09;4.20;76.40
10891;DHT22;5498;50.928;11.598;2023-03-12T08:18:14;4.30;75.90
10891;DHT22;5498;50.928;11.598;2023-03-12T08:21:15;4.40;75.70
10891;DHT22;5498;50.928;11.598;2023-03-12T08:24:18;4.50;74.50
10891;DHT22;5498;50.928;11.598;2023-03-12T08:27:20;4.70;73.40
10891;DHT22;5498;50.928;11.598;2023-03-12T08:30:22;4.80;73.60
10891;DHT22;5498;50.928;11.598;2023-03-12T08:33:25;5.00;72.60
10891;DHT22;5498;50.928;11.598;2023-03-12T08:36:28;5.10;71.70
10891;DHT22;5498;50.928;11.598;2023-03-12T08:39:29;5.30;69.40
10891;DHT22;5498;50.928;11.598;2023-03-12T08:42:31;5.40;68.40
10891;DHT22;5498;50.928;11.598;2023-03-12T08:45:33;5.60;66.60
10891;DHT22;5498;50.928;11.598;2023-03-12T08:48:37;5.80;66.00
10891;DHT22;5498;50.928;11.598;2023-03-12T08:51:38;6.00;64.60
10891;DHT22;5498;50.928;11.598;2023-03-12T08:54:40;6.10;63.50
10891;DHT22;5498;50.928;11.598;2023-03-12T08:57:42;6.20;63.50
10891;DHT22;5498;50.928;11.598;2023-03-12T09:00:44;6.30;63.20
10891;DHT22;5498;50.928;11.598;2023-03-12T09:03:47;6.40;62.60
10891;DHT22;5498;50.928;11.598;2023-03-12T09:06:52;6.40;62.00
10891;DHT22;5498;50.928;11.598;2023-03-12T09:09:53;6.40;62.10
10891;DHT22;5498;50.928;11.598;2023-03-12T09:12:56;6.60;62.40
10891;DHT22;5498;50.928;11.598;2023-03-12T09:15:58;6.20;63.10
10891;DHT22;5498;50.928;11.598;2023-03-12T09:19:02;6.30;63.90
10891;DHT22;5498;50.928;11.598;2023-03-12T09:22:04;6.30;63.70
10891;DHT22;5498;50.928;11.598;2023-03-12T09:25:08;6.20;63.30
10891;DHT22;5498;50.928;11.598;2023-03-12T09:28:10;6.20;62.90
10891;DHT22;5498;50.928;11.598;2023-03-12T09:31:12;6.20;63.80
10891;DHT22;5498;50.928;11.598;2023-03-12T09:34:16;6.30;62.90
10891;DHT22;5498;50.928;11.598;2023-03-12T09:37:18;6.40;63.30
10891;DHT22;5498;50.928;11.598;2023-03-12T09:40:22;6.50;62.90
10891;DHT22;5498;50.928;11.598;2023-03-12T09:43:31;6.60;63.10
10891;DHT22;5498;50.928;11.598;2023-03-12T09:46:39;6.70;63.00
10891;DHT22;5498;50.928;11.598;2023-03-12T09:49:46;6.70;63.00
10891;DHT22;5498;50.928;11.598;2023-03-12T09:52:52;6.80;63.00
10891;DHT22;5498;50.928;11.598;2023-03-12T09:56:02;6.80;62.10
10891;DHT22;5498;50.928;11.598;2023-03-12T09:59:10;6.80;62.90
10891;DHT22;5498;50.928;11.598;2023-03-12T10:02:30;6.80;63.50
10891;DHT22;5498;50.928;11.598;2023-03-12T10:05:45;6.90;63.70
10891;DHT22;5498;50.928;11.598;2023-03-12T10:09:00;7.10;62.30
10891;DHT22;5498;50.928;11.598;2023-03-12T10:12:12;7.10;60.90
10891;DHT22;5498;50.928;11.598;2023-03-12T10:15:28;7.00;60.80
10891;DHT22;5498;50.928;11.598;2023-03-12T10:18:50;7.00;60.90
10891;DHT22;5498;50.928;11.598;2023-03-12T10:22:19;6.90;61.30
10891;DHT22;5498;50.928;11.598;2023-03-12T10:25:31;6.80;60.80
10891;DHT22;5498;50.928;11.598;2023-03-12T10:28:41;6.80;62.00
10891;DHT22;5498;50.928;11.598;2023-03-12T10:31:50;6.70;59.90
10891;DHT22;5498;50.928;11.598;2023-03-12T10:34:55;6.70;59.80
10891;DHT22;5498;50.928;11.598;2023-03-12T10:38:01;6.70;60.40
10891;DHT22;5498;50.928;11.598;2023-03-12T10:41:12;6.70;60.10
10891;DHT22;5498;50.928;11.598;2023-03-12T10:44:18;6.70;60.80
10891;DHT22;5498;50.928;11.598;2023-03-12T10:47:30;6.70;60.30
10891;DHT22;5498;50.928;11.598;2023-03-12T10:50:37;6.70;60.40
10891;DHT22;5498;50.928;11.598;2023-03-12T10:53:42;6.70;60.10
10891;DHT22;5498;50.928;11.598;2023-03-12T10:56:49;6.70;60.00
10891;DHT22;5498;50.928;11.598;2023-03-12T10:59:51;6.70;60.40
10891;DHT22;5498;50.928;11.598;2023-03-12T11:02:58;6.70;61.00
10891;DHT22;5498;50.928;11.598;2023-03-12T11:06:05;6.70;60.40
10891;DHT22;5498;50.928;11.598;2023-03-12T11:09:17;6.70;60.60
10891;DHT22;5498;50.928;11.598;2023-03-12T11:12:23;6.80;60.20
10891;DHT22;5498;50.928;11.598;2023-03-12T11:15:29;6.80;60.90
10891;DHT22;5498;50.928;11.598;2023-03-12T11:18:38;6.80;61.10
10891;DHT22;5498;50.928;11.598;2023-03-12T11:21:53;6.90;60.90
10891;DHT22;5498;50.928;11.598;2023-03-12T11:25:00;6.90;60.80
10891;DHT22;5498;50.928;11.598;2023-03-12T11:28:04;6.90;61.90
10891;DHT22;5498;50.928;11.598;2023-03-12T11:31:12;6.90;62.30
10891;DHT22;5498;50.928;11.598;2023-03-12T11:34:21;6.70;62.60
10891;DHT22;5498;50.928;11.598;2023-03-12T11:37:34;6.70;62.60
10891;DHT22;5498;50.928;11.598;2023-03-12T11:40:54;6.60;61.80
10891;DHT22;5498;50.928;11.598;2023-03-12T11:44:18;6.60;61.40
10891;DHT22;5498;50.928;11.598;2023-03-12T11:47:40;6.60;61.40
10891;DHT22;5498;50.928;11.598;2023-03-12T11:51:02;6.60;62.00
10891;DHT22;5498;50.928;11.598;2023-03-12T11:57:50;6.50;63.00
10891;DHT22;5498;50.928;11.598;2023-03-12T12:01:03;6.60;63.50
10891;DHT22;5498;50.928;11.598;2023-03-12T12:04:42;6.60;63.30
10891;DHT22;5498;50.928;11.598;2023-03-12T12:08:13;6.60;63.10
10891;DHT22;5498;50.928;11.598;2023-03-12T12:11:27;6.60;63.50
10891;DHT22;5498;50.928;11.598;2023-03-12T12:14:59;6.60;63.40
10891;DHT22;5498;50.928;11.598;2023-03-12T12:18:24;6.70;63.90
10891;DHT22;5498;50.928;11.598;2023-03-12T12:21:44;6.60;64.80
10891;DHT22;5498;50.928;11.598;2023-03-12T12:25:11;6.60;65.80
10891;DHT22;5498;50.928;11.598;2023-03-12T12:28:41;6.50;67.00
10891;DHT22;5498;50.928;11.598;2023-03-12T12:31:53;6.50;67.50
10891;DHT22;5498;50.928;11.598;2023-03-12T12:35:05;6.50;67.90
10891;DHT22;5498;50.928;11.598;2023-03-12T12:38:12;6.50;68.70
10891;DHT22;5498;50.928;11.598;2023-03-12T12:41:17;6.50;69.40
10891;DHT22;5498;50.928;11.598;2023-03-12T12:44:24;6.50;70.00
10891;DHT22;5498;50.928;11.598;2023-03-12T12:47:35;6.40;70.60
10891;DHT22;5498;50.928;11.598;2023-03-12T12:50:42;6.40;72.10
10891;DHT22;5498;50.928;11.598;2023-03-12T12:53:48;6.40;71.60
10891;DHT22;5498;50.928;11.598;2023-03-12T12:56:59;6.40;71.90
10891;DHT22;5498;50.928;11.598;2023-03-12T13:03:50;6.30;72.20
10891;DHT22;5498;50.928;11.598;2023-03-12T13:07:01;6.30;72.00
10891;DHT22;5498;50.928;11.598;2023-03-12T13:10:06;6.30;72.30
10891;DHT22;5498;50.928;11.598;2023-03-12T13:13:39;6.30;72.60
10891;DHT22;5498;50.928;11.598;2023-03-12T13:16:44;6.40;73.10
10891;DHT22;5498;50.928;11.598;2023-03-12T13:19:49;6.40;73.20
10891;DHT22;5498;50.928;11.598;2023-03-12T13:23:09;6.40;73.50
10891;DHT22;5498;50.928;11.598;2023-03-12T13:26:27;6.50;74.20
10891;DHT22;5498;50.928;11.598;2023-03-12T13:29:37;6.50;74.90
10891;DHT22;5498;50.928;11.598;2023-03-12T13:33:04;6.60;75.70
10891;DHT22;5498;50.928;11.598;2023-03-12T13:36:20;6.60;75.70
10891;DHT22;5498;50.928;11.598;2023-03-12T13:39:29;6.60;75.80
10891;DHT22;5498;50.928;11.598;2023-03-12T13:42:38;6.70;75.30
10891;DHT22;5498;50.928;11.598;2023-03-12T13:45:55;6.70;75.40
10891;DHT22;5498;50.928;11.598;2023-03-12T13:49:04;6.80;75.50
10891;DHT22;5498;50.928;11.598;2023-03-12T13:52:20;6.80;75.30
10891;DHT22;5498;50.928;11.598;2023-03-12T13:55:25;6.80;75.00
10891;DHT22;5498;50.928;11.598;2023-03-12T13:58:28;6.80;74.90
10891;DHT22;5498;50.928;11.598;2023-03-12T14:01:34;6.80;74.80
10891;DHT22;5498;50.928;11.598;2023-03-12T14:04:40;6.80;75.70
10891;DHT22;5498;50.928;11.598;2023-03-12T14:08:05;6.80;75.70
10891;DHT22;5498;50.928;11.598;2023-03-12T14:11:33;6.90;75.90
10891;DHT22;5498;50.928;11.598;2023-03-12T14:14:53;6.90;76.00
10891;DHT22;5498;50.928;11.598;2023-03-12T14:18:12;6.90;76.10
10891;DHT22;5498;50.928;11.598;2023-03-12T14:21:16;6.90;76.30
10891;DHT22;5498;50.928;11.598;2023-03-12T14:24:25;7.00;77.80
10891;DHT22;5498;50.928;11.598;2023-03-12T14:27:31;7.10;79.10
10891;DHT22;5498;50.928;11.598;2023-03-12T14:30:41;7.20;79.10
10891;DHT22;5498;50.928;11.598;2023-03-12T14:33:50;7.40;79.80
10891;DHT22;5498;50.928;11.598;2023-03-12T14:36:59;7.50;79.70
10891;DHT22;5498;50.928;11.598;2023-03-12T14:40:18;7.60;80.00
10891;DHT22;5498;50.928;11.598;2023-03-12T14:43:24;7.70;80.10
10891;DHT22;5498;50.928;11.598;2023-03-12T14:46:27;7.80;79.90
10891;DHT22;5498;50.928;11.598;2023-03-12T14:49:30;7.80;79.60
10891;DHT22;5498;50.928;11.598;2023-03-12T14:52:32;7.80;79.80
10891;DHT22;5498;50.928;11.598;2023-03-12T14:55:35;7.80;79.30
10891;DHT22;5498;50.928;11.598;2023-03-12T14:58:42;7.80;79.20
10891;DHT22;5498;50.928;11.598;2023-03-12T15:01:45;7.80;79.70
10891;DHT22;5498;50.928;11.598;2023-03-12T15:04:49;7.70;79.90
10891;DHT22;5498;50.928;11.598;2023-03-12T15:07:59;7.70;80.00
10891;DHT22;5498;50.928;11.598;2023-03-12T15:11:03;7.60;80.30
10891;DHT22;5498;50.928;11.598;2023-03-12T15:14:11;7.60;80.30
10891;DHT22;5498;50.928;11.598;2023-03-12T15:17:16;7.50;80.60
10891;DHT22;5498;50.928;11.598;2023-03-12T15:20:20;7.50;81.40
10891;DHT22;5498;50.928;11.598;2023-03-12T15:23:25;7.40;81.50
10891;DHT22;5498;50.928;11.598;2023-03-12T15:26:34;7.40;81.70
10891;DHT22;5498;50.928;11.598;2023-03-12T15:29:40;7.40;81.70
10891;DHT22;5498;50.928;11.598;2023-03-12T15:33:02;7.40;82.30
10891;DHT22;5498;50.928;11.598;2023-03-12T15:36:23;7.40;82.80
10891;DHT22;5498;50.928;11.598;2023-03-12T15:39:28;7.40;83.30
10891;DHT22;5498;50.928;11.598;2023-03-12T15:42:40;7.40;83.40
10891;DHT22;5498;50.928;11.598;2023-03-12T15:45:44;7.40;83.50
10891;DHT22;5498;50.928;11.598;2023-03-12T15:48:48;7.40;83.40
10891;DHT22;5498;50.928;11.598;2023-03-12T15:51:59;7.40;83.70
10891;DHT22;5498;50.928;11.598;2023-03-12T15:55:14;7.30;84.10
10891;DHT22;5498;50.928;11.598;2023-03-12T15:58:28;7.30;84.10
10891;DHT22;5498;50.928;11.598;2023-03-12T16:01:43;6.90;83.80
10891;DHT22;5498;50.928;11.598;2023-03-12T16:04:46;7.30;84.90
10891;DHT22;5498;50.928;11.598;2023-03-12T16:07:48;7.30;83.90
10891;DHT22;5498;50.928;11.598;2023-03-12T16:10:50;7.30;83.90
10891;DHT22;5498;50.928;11.598;2023-03-12T16:13:57;7.40;84.10
10891;DHT22;5498;50.928;11.598;2023-03-12T16:17:05;7.30;84.20
10891;DHT22;5498;50.928;11.598;2023-03-12T16:20:13;7.30;83.70
10891;DHT22;5498;50.928;11.598;2023-03-12T16:23:17;7.30;84.30
10891;DHT22;5498;50.928;11.598;2023-03-12T16:26:19;7.40;84.40
10891;DHT22;5498;50.928;11.598;2023-03-12T16:29:28;7.40;83.40
10891;DHT22;5498;50.928;11.598;2023-03-12T16:32:32;7.40;84.30
10891;DHT22;5498;50.928;11.598;2023-03-12T16:35:34;7.40;84.20
10891;DHT22;5498;50.928;11.598;2023-03-12T16:38:36;7.40;84.30
10891;DHT22;5498;50.928;11.598;2023-03-12T16:41:38;7.80;84.20
10891;DHT22;5498;50.928;11.598;2023-03-12T16:44:43;7.40;84.40
10891;DHT22;5498;50.928;11.598;2023-03-12T16:47:47;7.40;84.80
10891;DHT22;5498;50.928;11.598;2023-03-12T16:50:55;7.40;84.90
10891;DHT22;5498;50.928;11.598;2023-03-12T16:53:57;7.40;85.20
10891;DHT22;5498;50.928;11.598;2023-03-12T16:57:00;7.40;85.30
10891;DHT22;5498;50.928;11.598;2023-03-12T17:00:05;7.40;85.30
10891;DHT22;5498;50.928;11.598;2023-03-12T17:03:17;7.40;85.80
10891;DHT22;5498;50.928;11.598;2023-03-12T17:06:22;7.40;86.10
10891;DHT22;5498;50.928;11.598;2023-03-12T17:09:26;7.40;87.20
10891;DHT22;5498;50.928;11.598;2023-03-12T17:12:30;7.40;86.80
10891;DHT22;5498;50.928;11.598;2023-03-12T17:15:34;7.40;87.70
10891;DHT22;5498;50.928;11.598;2023-03-12T17:18:36;7.40;88.40
10891;DHT22;5498;50.928;11.598;2023-03-12T17:21:38;7.40;88.80
10891;DHT22;5498;50.928;11.598;2023-03-12T17:24:41;7.40;89.60
10891;DHT22;5498;50.928;11.598;2023-03-12T17:27:44;7.40;89.60
10891;DHT22;5498;50.928;11.598;2023-03-12T17:30:47;7.40;89.60
10891;DHT22;5498;50.928;11.598;2023-03-12T17:33:49;7.40;89.60
10891;DHT22;5498;50.928;11.598;2023-03-12T17:36:51;7.40;89.90
10891;DHT22;5498;50.928;11.598;2023-03-12T17:39:52;7.40;89.80
10891;DHT22;5498;50.928;11.598;2023-03-12T17:42:54;7.40;90.00
10891;DHT22;5498;50.928;11.598;2023-03-12T17:46:03;7.40;90.00
10891;DHT22;5498;50.928;11.598;2023-03-12T17:49:05;7.40;90.00
10891;DHT22;5498;50.928;11.598;2023-03-12T17:52:07;7.50;89.80
10891;DHT22;5498;50.928;11.598;2023-03-12T17:55:09;7.50;89.60
10891;DHT22;5498;50.928;11.598;2023-03-12T17:58:11;7.50;89.80
10891;DHT22;5498;50.928;11.598;2023-03-12T18:01:14;7.50;89.60
10891;DHT22;5498;50.928;11.598;2023-03-12T18:04:17;7.50;90.10
10891;DHT22;5498;50.928;11.598;2023-03-12T18:07:18;7.60;89.90
10891;DHT22;5498;50.928;11.598;2023-03-12T18:10:20;7.60;90.00
10891;DHT22;5498;50.928;11.598;2023-03-12T18:13:22;7.60;90.20
10891;DHT22;5498;50.928;11.598;2023-03-12T18:16:25;7.60;90.10
10891;DHT22;5498;50.928;11.598;2023-03-12T18:19:27;7.60;90.20
10891;DHT22;5498;50.928;11.598;2023-03-12T18:22:30;7.60;90.20
10891;DHT22;5498;50.928;11.598;2023-03-12T18:25:31;7.60;90.20
10891;DHT22;5498;50.928;11.598;2023-03-12T18:28:33;7.70;90.30
10891;DHT22;5498;50.928;11.598;2023-03-12T18:31:50;7.70;90.40
10891;DHT22;5498;50.928;11.598;2023-03-12T18:34:52;7.70;90.10
10891;DHT22;5498;50.928;11.598;2023-03-12T18:37:55;7.70;90.60
10891;DHT22;5498;50.928;11.598;2023-03-12T18:41:03;7.70;90.70
10891;DHT22;5498;50.928;11.598;2023-03-12T18:44:06;7.70;90.40
10891;DHT22;5498;50.928;11.598;2023-03-12T18:47:09;7.80;90.50
10891;DHT22;5498;50.928;11.598;2023-03-12T18:50:11;7.80;90.40
10891;DHT22;5498;50.928;11.598;2023-03-12T18:53:13;7.80;90.50
10891;DHT22;5498;50.928;11.598;2023-03-12T18:56:15;7.70;90.60
10891;DHT22;5498;50.928;11.598;2023-03-12T18:59:17;7.80;90.80
10891;DHT22;5498;50.928;11.598;2023-03-12T19:02:20;7.90;90.50
10891;DHT22;5498;50.928;11.598;2023-03-12T19:05:23;7.90;90.50
10891;DHT22;5498;50.928;11.598;2023-03-12T19:08:24;8.00;90.50
10891;DHT22;5498;50.928;11.598;2023-03-12T19:11:26;8.00;90.60
10891;DHT22;5498;50.928;11.598;2023-03-12T19:14:28;8.00;90.70
10891;DHT22;5498;50.928;11.598;2023-03-12T19:17:32;8.00;90.70
10891;DHT22;5498;50.928;11.598;2023-03-12T19:20:34;8.10;90.80
10891;DHT22;5498;50.928;11.598;2023-03-12T19:23:35;8.10;90.70
10891;DHT22;5498;50.928;11.598;2023-03-12T19:26:37;8.20;90.80
10891;DHT22;5498;50.928;11.598;2023-03-12T19:29:39;8.20;90.80
10891;DHT22;5498;50.928;11.598;2023-03-12T19:32:42;8.20;90.70
10891;DHT22;5498;50.928;11.598;2023-03-12T19:35:44;8.30;90.70
10891;DHT22;5498;50.928;11.598;2023-03-12T19:38:46;8.30;90.80
10891;DHT22;5498;50.928;11.598;2023-03-12T19:41:48;8.30;90.80
10891;DHT22;5498;50.928;11.598;2023-03-12T19:44:50;8.30;91.00
10891;DHT22;5498;50.928;11.598;2023-03-12T19:47:53;8.40;90.90
10891;DHT22;5498;50.928;11.598;2023-03-12T19:50:55;8.40;90.90